createdAt,value
2022-07-31T00:00:37.795Z,69.60
2022-07-31T00:03:05.624Z,69.70
2022-07-31T00:05:38.676Z,69.60
2022-07-31T00:08:09.999Z,69.70
2022-07-31T00:10:45.379Z,69.80
2022-07-31T00:13:13.777Z,69.80
2022-07-31T00:15:41.767Z,69.80
2022-07-31T00:18:09.686Z,70.00
2022-07-31T00:20:37.453Z,69.90
2022-07-31T00:23:05.213Z,70.00
2022-07-31T00:25:33.021Z,69.90
2022-07-31T00:28:02.118Z,70.00
2022-07-31T00:30:30.151Z,70.00
2022-07-31T00:32:57.902Z,70.10
2022-07-31T00:35:25.669Z,70.20
2022-07-31T00:38:02.188Z,70.10
2022-07-31T00:40:47.861Z,70.20
2022-07-31T00:43:19.216Z,70.30
2022-07-31T00:45:47.157Z,70.30
2022-07-31T00:48:21.621Z,70.40
2022-07-31T00:50:50.938Z,70.40
2022-07-31T00:53:24.525Z,70.50
2022-07-31T00:55:52.446Z,70.40
2022-07-31T00:58:21.592Z,70.50
2022-07-31T01:00:49.410Z,70.60
2022-07-31T01:03:18.536Z,70.60
2022-07-31T01:05:46.437Z,70.70
2022-07-31T01:08:14.500Z,70.70
2022-07-31T01:10:49.485Z,70.80
2022-07-31T01:13:27.069Z,70.90
2022-07-31T01:15:56.505Z,70.90
2022-07-31T01:18:25.665Z,71.00
2022-07-31T01:20:57.703Z,71.00
2022-07-31T01:23:57.791Z,71.00
2022-07-31T01:26:37.461Z,71.20
2022-07-31T01:29:25.359Z,71.20
2022-07-31T01:31:58.499Z,71.30
2022-07-31T01:34:32.685Z,71.30
2022-07-31T01:37:06.652Z,71.40
2022-07-31T01:39:48.816Z,71.50
2022-07-31T01:42:19.265Z,71.60
2022-07-31T01:48:39.940Z,71.70
2022-07-31T01:51:08.982Z,71.80
2022-07-31T01:53:39.046Z,71.90
2022-07-31T01:56:08.152Z,72.00
2022-07-31T01:58:37.580Z,72.00
2022-07-31T02:01:08.728Z,72.70
2022-07-31T02:03:44.315Z,72.10
2022-07-31T02:06:15.567Z,72.10
2022-07-31T02:08:49.016Z,72.20
2022-07-31T02:11:19.106Z,72.30
2022-07-31T02:13:47.857Z,72.50
2022-07-31T02:16:17.283Z,73.10
2022-07-31T02:18:48.172Z,72.50
2022-07-31T02:21:17.316Z,72.50
2022-07-31T02:23:45.129Z,72.50
2022-07-31T02:26:14.118Z,72.40
2022-07-31T02:28:44.759Z,72.50
2022-07-31T02:31:15.864Z,72.60
2022-07-31T02:33:47.253Z,72.60
2022-07-31T02:36:17.782Z,72.70
2022-07-31T02:38:46.089Z,72.80
2022-07-31T02:41:15.851Z,72.90
2022-07-31T02:43:45.160Z,73.00
2022-07-31T02:46:14.338Z,73.10
2022-07-31T02:48:42.945Z,73.30
2022-07-31T02:51:12.455Z,73.10
2022-07-31T02:53:41.437Z,73.20
2022-07-31T02:56:09.732Z,73.20
2022-07-31T02:58:41.694Z,73.20
2022-07-31T03:01:09.677Z,73.30
2022-07-31T03:03:37.640Z,73.30
2022-07-31T03:06:05.566Z,73.40
2022-07-31T03:08:34.849Z,73.40
2022-07-31T03:11:02.752Z,73.40
2022-07-31T03:13:32.901Z,73.60
2022-07-31T03:16:01.507Z,73.50
2022-07-31T03:18:30.722Z,73.60
2022-07-31T03:20:58.803Z,73.60
2022-07-31T03:23:28.704Z,73.60
2022-07-31T03:25:58.623Z,73.70
2022-07-31T03:28:26.408Z,73.60
2022-07-31T03:30:56.355Z,73.70
2022-07-31T03:33:24.565Z,73.70
2022-07-31T03:35:53.108Z,73.80
2022-07-31T03:38:38.741Z,73.70
2022-07-31T03:41:10.371Z,73.80
2022-07-31T03:43:44.458Z,73.80
2022-07-31T03:46:18.932Z,74.00
2022-07-31T03:48:47.519Z,73.90
2022-07-31T03:51:16.440Z,74.00
2022-07-31T03:53:48.320Z,73.90
2022-07-31T03:56:18.856Z,74.00
2022-07-31T03:58:52.633Z,74.10
2022-07-31T04:01:21.952Z,74.00
2022-07-31T04:03:50.429Z,74.20
2022-07-31T04:06:18.202Z,74.20
2022-07-31T04:11:42.657Z,74.30
2022-07-31T04:14:10.423Z,74.30
2022-07-31T04:16:38.214Z,74.40
2022-07-31T04:19:05.972Z,74.40
2022-07-31T04:21:33.755Z,74.60
2022-07-31T04:24:01.517Z,74.70
2022-07-31T04:26:29.994Z,74.70
2022-07-31T04:28:59.125Z,74.80
2022-07-31T04:31:26.880Z,74.70
2022-07-31T04:33:56.848Z,74.80
2022-07-31T04:36:30.097Z,75.00
2022-07-31T04:38:58.883Z,75.10
2022-07-31T04:41:26.743Z,75.10
2022-07-31T04:43:54.584Z,75.20
2022-07-31T04:46:23.680Z,75.20
2022-07-31T04:48:51.613Z,75.40
2022-07-31T04:51:19.972Z,75.40
2022-07-31T04:53:48.088Z,75.40
2022-07-31T04:56:33.274Z,75.50
2022-07-31T04:59:02.434Z,75.40
2022-07-31T05:01:32.708Z,75.50
2022-07-31T05:04:00.573Z,75.50
2022-07-31T05:06:39.245Z,75.60
2022-07-31T05:09:10.730Z,75.70
2022-07-31T05:11:42.165Z,75.70
2022-07-31T05:14:11.996Z,75.70
2022-07-31T05:16:41.254Z,75.90
2022-07-31T05:19:13.862Z,75.90
2022-07-31T05:21:52.840Z,75.90
2022-07-31T05:24:32.945Z,75.90
2022-07-31T05:27:01.841Z,76.00
2022-07-31T05:29:29.843Z,76.30
2022-07-31T05:32:00.751Z,76.30
2022-07-31T05:34:30.635Z,76.30
2022-07-31T05:36:58.783Z,76.30
2022-07-31T05:39:28.081Z,76.40
2022-07-31T05:41:55.883Z,76.40
2022-07-31T05:44:24.437Z,76.70
2022-07-31T05:49:22.086Z,76.80
2022-07-31T05:51:53.992Z,76.80
2022-07-31T05:54:21.893Z,76.90
2022-07-31T05:56:49.650Z,76.90
2022-07-31T05:59:17.408Z,77.00
2022-07-31T06:01:45.287Z,76.90
2022-07-31T06:04:13.106Z,76.90
2022-07-31T06:06:42.231Z,76.70
2022-07-31T06:09:10.117Z,76.30
2022-07-31T06:11:37.907Z,76.50
2022-07-31T06:14:05.758Z,76.20
2022-07-31T06:16:33.526Z,76.00
2022-07-31T06:19:01.309Z,76.20
2022-07-31T06:21:30.967Z,76.10
2022-07-31T06:24:00.141Z,76.50
2022-07-31T06:26:30.131Z,76.40
2022-07-31T06:28:57.896Z,76.60
2022-07-31T06:31:25.644Z,76.40
2022-07-31T06:33:53.421Z,76.20
2022-07-31T06:36:21.292Z,76.10
2022-07-31T06:38:49.041Z,76.00
2022-07-31T06:41:32.086Z,75.80
2022-07-31T06:43:59.863Z,75.80
2022-07-31T06:46:27.672Z,75.70
2022-07-31T06:48:55.546Z,75.50
2022-07-31T06:51:32.018Z,75.30
2022-07-31T06:54:00.523Z,75.20
2022-07-31T06:56:29.841Z,75.10
2022-07-31T06:58:58.007Z,75.00
2022-07-31T07:01:29.731Z,74.90
2022-07-31T07:03:57.587Z,74.60
2022-07-31T07:06:25.657Z,74.50
2022-07-31T07:08:53.800Z,75.10
2022-07-31T07:11:21.792Z,74.60
2022-07-31T07:13:50.901Z,74.50
2022-07-31T12:44:51.077Z,67.50
2022-07-31T12:47:22.486Z,68.50
2022-07-31T12:49:54.863Z,67.80
2022-07-31T12:52:23.608Z,67.80
2022-07-31T12:54:51.630Z,67.70
2022-07-31T12:57:19.392Z,67.40
2022-07-31T12:59:47.570Z,67.20
2022-07-31T13:02:17.273Z,67.10
2022-07-31T13:04:45.053Z,67.30
2022-07-31T13:07:14.760Z,67.40
2022-07-31T13:09:42.715Z,67.30
2022-07-31T13:12:30.610Z,66.90
2022-07-31T13:14:58.427Z,67.00
2022-07-31T13:17:27.599Z,67.00
2022-07-31T13:19:55.491Z,67.30
2022-07-31T13:22:23.287Z,67.40
2022-07-31T13:24:51.088Z,67.50
2022-07-31T13:27:19.805Z,67.20
2022-07-31T13:29:47.845Z,67.10
2022-07-31T13:32:16.544Z,67.20
2022-07-31T13:34:45.828Z,67.20
2022-07-31T13:37:13.637Z,67.20
2022-07-31T13:39:41.437Z,67.20
2022-07-31T13:42:09.777Z,67.10
2022-07-31T13:44:37.570Z,67.30
2022-07-31T13:47:05.697Z,67.60
2022-07-31T13:49:33.788Z,67.40
2022-07-31T13:52:05.187Z,67.40
2022-07-31T13:54:33.186Z,67.40
2022-07-31T13:57:01.122Z,67.30
2022-07-31T13:59:29.224Z,67.30
2022-07-31T14:02:13.438Z,67.20
2022-07-31T14:04:42.088Z,67.10
2022-07-31T14:07:12.951Z,67.20
2022-07-31T14:09:55.276Z,67.30
2022-07-31T14:12:24.125Z,67.20
2022-07-31T14:14:52.238Z,67.10
2022-07-31T14:17:20.767Z,67.00
2022-07-31T14:19:48.635Z,67.10
2022-07-31T14:22:17.838Z,67.30
2022-07-31T14:24:50.728Z,67.20
2022-07-31T14:27:19.466Z,67.30
2022-07-31T14:29:47.804Z,67.40
2022-07-31T14:32:15.834Z,67.40
2022-07-31T14:34:43.705Z,67.70
2022-07-31T14:37:11.554Z,68.00
2022-07-31T14:39:42.858Z,68.30
2022-07-31T14:42:11.568Z,69.50
2022-07-31T14:44:41.693Z,69.10
2022-07-31T14:47:10.206Z,69.50
2022-07-31T14:50:06.882Z,69.90
2022-07-31T14:52:26.690Z,70.00
2022-07-31T14:54:55.885Z,70.40
2022-07-31T14:57:23.735Z,70.50
2022-07-31T14:59:52.032Z,70.90
2022-07-31T15:02:22.485Z,71.10
2022-07-31T15:04:52.053Z,71.30
2022-07-31T15:07:39.514Z,71.80
2022-07-31T15:10:11.721Z,72.10
2022-07-31T15:12:39.926Z,72.30
2022-07-31T15:15:08.840Z,72.30
2022-07-31T15:17:36.648Z,72.30
2022-07-31T15:20:05.629Z,72.00
2022-07-31T15:22:33.457Z,71.70
2022-07-31T15:25:03.668Z,71.20
2022-07-31T15:27:32.792Z,71.40
2022-07-31T15:30:06.798Z,71.30
2022-07-31T15:32:36.269Z,71.60
2022-07-31T15:35:06.314Z,71.70
2022-07-31T15:37:35.473Z,71.60
2022-07-31T15:40:05.278Z,71.80
2022-07-31T15:42:37.891Z,72.00
2022-07-31T15:45:06.501Z,72.00
2022-07-31T15:47:34.286Z,72.10
2022-07-31T15:50:03.045Z,71.70
2022-07-31T15:52:30.825Z,71.90
2022-07-31T15:54:58.629Z,72.00
2022-07-31T15:57:26.713Z,71.80
2022-07-31T15:59:56.126Z,71.30
2022-07-31T16:02:24.682Z,71.20
2022-07-31T16:04:55.590Z,71.20
2022-07-31T16:08:29.417Z,71.10
2022-07-31T16:10:18.483Z,71.10
2022-07-31T16:12:46.804Z,70.40
2022-07-31T16:15:18.387Z,70.70
2022-07-31T16:17:46.300Z,71.30
2022-07-31T16:20:25.606Z,71.10
2022-07-31T16:22:56.830Z,70.90
2022-07-31T16:25:25.698Z,70.70
2022-07-31T16:27:54.011Z,70.70
2022-07-31T16:30:23.628Z,70.30
2022-07-31T16:32:51.423Z,70.30
2022-07-31T16:35:19.243Z,70.40
2022-07-31T16:37:52.223Z,70.50
2022-07-31T16:40:28.191Z,70.40
2022-07-31T16:43:00.513Z,70.00
2022-07-31T16:45:30.716Z,70.10
2022-07-31T16:47:58.879Z,70.10
2022-07-31T16:50:27.075Z,69.90
2022-07-31T16:52:55.374Z,70.10
2022-07-31T16:55:46.271Z,70.00
2022-07-31T16:58:12.574Z,70.00
2022-07-31T17:00:42.307Z,70.40
2022-07-31T17:03:58.701Z,70.30
2022-07-31T17:05:58.051Z,70.30
2022-07-31T17:08:25.902Z,70.50
2022-07-31T17:10:54.836Z,70.60
2022-07-31T17:13:23.121Z,70.70
2022-07-31T17:15:52.274Z,70.70
2022-07-31T17:18:24.829Z,70.60
2022-07-31T17:20:53.021Z,70.60
2022-07-31T17:23:44.206Z,70.70
2022-07-31T17:26:21.389Z,70.60
2022-07-31T17:28:50.808Z,70.70
2022-07-31T17:31:21.120Z,70.80
2022-07-31T17:33:54.856Z,70.80
2022-07-31T17:36:29.843Z,70.90
2022-07-31T17:38:57.710Z,70.80
2022-07-31T17:41:26.208Z,70.80
2022-07-31T17:43:55.125Z,71.70
2022-07-31T17:46:34.330Z,70.90
2022-07-31T17:49:05.251Z,71.00
2022-07-31T17:51:33.104Z,71.80
2022-07-31T17:54:01.064Z,71.20
2022-07-31T17:56:29.037Z,71.30
2022-07-31T17:59:04.401Z,71.30
2022-07-31T18:01:34.503Z,71.30
2022-07-31T18:04:03.224Z,71.30
2022-07-31T18:06:31.149Z,71.20
2022-07-31T18:08:59.600Z,71.20
2022-07-31T18:11:28.471Z,71.30
2022-07-31T18:14:03.011Z,71.40
2022-07-31T18:16:33.074Z,71.50
2022-07-31T18:19:00.861Z,71.60
2022-07-31T18:21:28.657Z,71.70
2022-07-31T18:23:56.469Z,71.60
2022-07-31T18:26:26.097Z,71.70
2022-07-31T18:28:53.907Z,71.70
2022-07-31T18:31:34.033Z,71.70
2022-07-31T18:34:05.432Z,71.80
2022-07-31T18:36:33.242Z,71.90
2022-07-31T18:39:03.695Z,71.80
2022-07-31T18:41:31.524Z,71.90
2022-07-31T18:43:59.367Z,72.10
2022-07-31T18:46:27.626Z,72.10
2022-07-31T18:48:56.907Z,72.20
2022-07-31T18:51:27.201Z,72.20
2022-07-31T18:53:55.454Z,72.30
2022-07-31T18:56:23.894Z,72.70
2022-07-31T18:58:51.911Z,72.50
2022-07-31T19:01:19.808Z,72.60
2022-07-31T19:03:47.690Z,72.70
2022-07-31T19:06:15.683Z,72.80
2022-07-31T19:08:45.921Z,72.90
2022-07-31T19:11:13.741Z,73.20
2022-07-31T19:13:41.629Z,73.20
2022-07-31T19:16:09.446Z,73.10
2022-07-31T19:18:39.270Z,73.20
2022-07-31T19:21:16.667Z,73.20
2022-07-31T19:23:51.953Z,73.30
2022-07-31T19:26:19.746Z,73.20
2022-07-31T19:28:47.729Z,73.20
2022-07-31T19:31:15.550Z,73.20
2022-07-31T19:33:43.983Z,73.20
2022-07-31T19:36:12.348Z,73.20
2022-07-31T19:38:44.058Z,73.20
2022-07-31T19:41:15.506Z,73.30
2022-07-31T19:43:48.384Z,73.30
2022-07-31T19:46:16.261Z,73.50
2022-07-31T19:48:45.891Z,73.60
2022-07-31T19:51:15.331Z,73.60
2022-07-31T19:53:44.385Z,73.60
2022-07-31T19:56:19.901Z,74.00
2022-07-31T19:58:48.921Z,75.20
2022-07-31T20:01:19.813Z,75.00
2022-07-31T20:03:52.671Z,75.50
2022-07-31T20:06:20.505Z,75.50
2022-07-31T20:08:49.794Z,76.10
2022-07-31T20:11:19.106Z,76.30
2022-07-31T20:13:46.895Z,76.30
2022-07-31T20:16:15.045Z,76.40
2022-07-31T20:18:42.932Z,77.10
2022-07-31T20:21:12.118Z,76.90
2022-07-31T20:23:41.458Z,77.30
2022-07-31T20:26:11.402Z,77.40
2022-07-31T20:28:41.061Z,77.50
2022-07-31T20:31:16.116Z,77.60
2022-07-31T20:33:57.857Z,77.90
2022-07-31T20:36:26.716Z,78.00
2022-07-31T20:38:54.684Z,78.10
2022-07-31T20:41:22.470Z,78.70
2022-07-31T20:43:51.609Z,78.40
2022-07-31T20:46:19.411Z,78.60
2022-07-31T20:48:47.463Z,78.70
2022-07-31T20:51:20.220Z,78.80
2022-07-31T20:53:48.290Z,78.90
2022-07-31T20:56:16.530Z,79.00
2022-07-31T20:58:47.236Z,79.20
2022-07-31T21:01:20.958Z,79.80
2022-07-31T21:03:49.279Z,79.70
2022-07-31T21:06:17.488Z,79.90
2022-07-31T21:08:46.346Z,79.90
2022-07-31T21:11:14.133Z,80.10
2022-07-31T21:13:43.107Z,80.40
2022-07-31T21:16:10.909Z,80.50
2022-07-31T21:18:43.344Z,80.50
2022-07-31T21:21:11.501Z,80.90
2022-07-31T21:23:39.314Z,81.00
2022-07-31T21:26:07.740Z,81.10
2022-07-31T21:28:36.390Z,81.10
2022-07-31T21:31:05.280Z,81.20
2022-07-31T21:33:33.794Z,81.20
2022-07-31T21:36:05.800Z,81.30
2022-07-31T21:38:35.396Z,81.50
2022-07-31T21:41:03.744Z,81.60
2022-07-31T21:43:36.446Z,81.60
2022-07-31T21:46:23.357Z,81.80
2022-07-31T21:48:52.249Z,81.80
2022-07-31T21:51:23.934Z,81.90
2022-07-31T21:53:51.754Z,82.10
2022-07-31T21:56:19.604Z,82.20
2022-07-31T21:58:47.521Z,82.70
2022-07-31T22:01:15.620Z,82.30
2022-07-31T22:03:43.786Z,82.40
2022-07-31T22:06:29.112Z,82.40
2022-07-31T22:08:58.234Z,82.40
2022-07-31T22:11:26.063Z,82.50
2022-07-31T22:13:53.859Z,82.60
2022-07-31T22:16:21.649Z,82.50
2022-07-31T22:18:51.645Z,82.60
2022-07-31T22:21:20.451Z,82.50
2022-07-31T22:23:48.573Z,82.80
2022-07-31T22:26:18.051Z,82.90
2022-07-31T22:28:47.318Z,83.70
2022-07-31T22:31:15.657Z,82.90
2022-07-31T22:33:43.678Z,83.10
2022-07-31T22:36:11.630Z,83.20
2022-07-31T22:38:40.375Z,83.20
2022-07-31T22:41:09.072Z,83.30
2022-07-31T22:44:10.556Z,83.50
2022-07-31T22:46:27.769Z,83.40
2022-07-31T22:48:56.606Z,83.50
2022-07-31T22:51:26.858Z,83.60
2022-07-31T22:53:54.640Z,83.50
2022-07-31T22:56:24.444Z,83.60
2022-07-31T22:58:54.605Z,83.90
2022-07-31T23:01:22.418Z,83.80
2022-07-31T23:03:50.190Z,83.90
2022-07-31T23:06:31.607Z,84.00
2022-07-31T23:09:00.823Z,84.10
2022-07-31T23:11:28.781Z,84.10
2022-07-31T23:13:58.001Z,84.10
2022-07-31T23:16:26.638Z,84.30
2022-07-31T23:18:54.462Z,84.40
2022-07-31T23:21:22.772Z,84.50
2022-07-31T23:23:51.268Z,84.40
2022-07-31T23:26:21.147Z,84.50
2022-07-31T23:28:49.466Z,85.40
2022-07-31T23:31:18.934Z,84.60
2022-07-31T23:33:48.109Z,84.70
2022-07-31T23:36:16.959Z,84.70
2022-07-31T23:38:45.852Z,84.70
2022-07-31T23:41:14.409Z,84.70
2022-07-31T23:43:41.903Z,84.80
2022-07-31T23:46:26.904Z,84.80
2022-07-31T23:48:55.768Z,84.90
2022-07-31T23:51:23.746Z,85.00
2022-07-31T23:53:52.794Z,85.00
2022-07-31T23:56:20.623Z,85.10
2022-07-31T23:58:48.423Z,85.10
